sensor_id;sensor_type;location;lat;lon;timestamp;pressure;altitude;pressure_sealevel;temperature;humidity
4415;BME280;2220;42.670;23.398;2022-09-19T00:01:49;94796.59;;;8.73;100.00
4415;BME280;2220;42.670;23.398;2022-09-19T00:04:18;94813.94;;;8.67;100.00
4415;BME280;2220;42.670;23.398;2022-09-19T00:06:46;94815.84;;;8.77;100.00
4415;BME280;2220;42.670;23.398;2022-09-19T00:09:15;94814.47;;;8.69;100.00
4415;BME280;2220;42.670;23.398;2022-09-19T00:11:43;94826.25;;;8.77;100.00
4415;BME280;2220;42.670;23.398;2022-09-19T00:14:12;94829.19;;;8.64;100.00
4415;BME280;2220;42.670;23.398;2022-09-19T00:16:40;94832.16;;;8.51;100.00
4415;BME280;2220;42.670;23.398;2022-09-19T00:19:09;94835.91;;;8.60;100.00
4415;BME280;2220;42.670;23.398;2022-09-19T00:21:40;94838.97;;;8.57;100.00
4415;BME280;2220;42.670;23.398;2022-09-19T00:24:10;94837.47;;;8.61;100.00
4415;BME280;2220;42.670;23.398;2022-09-19T00:26:54;94810.41;;;8.35;100.00
4415;BME280;2220;42.670;23.398;2022-09-19T00:29:20;94798.34;;;8.46;100.00
4415;BME280;2220;42.670;23.398;2022-09-19T00:31:46;94789.81;;;8.33;100.00
4415;BME280;2220;42.670;23.398;2022-09-19T00:34:12;94779.06;;;8.03;100.00
4415;BME280;2220;42.670;23.398;2022-09-19T00:36:40;94741.56;;;8.10;100.00
4415;BME280;2220;42.670;23.398;2022-09-19T00:39:08;94739.94;;;8.09;100.00
4415;BME280;2220;42.670;23.398;2022-09-19T00:41:34;94742.91;;;7.96;100.00
4415;BME280;2220;42.670;23.398;2022-09-19T00:46:54;94730.34;;;8.10;100.00
4415;BME280;2220;42.670;23.398;2022-09-19T00:49:22;94726.06;;;7.99;100.00
4415;BME280;2220;42.670;23.398;2022-09-19T00:51:54;94697.97;;;7.91;100.00
4415;BME280;2220;42.670;23.398;2022-09-19T00:54:42;94697.78;;;7.58;100.00
4415;BME280;2220;42.670;23.398;2022-09-19T00:57:11;94663.56;;;7.40;100.00
4415;BME280;2220;42.670;23.398;2022-09-19T00:59:42;94617.94;;;7.39;100.00
4415;BME280;2220;42.670;23.398;2022-09-19T01:02:08;94608.16;;;7.46;100.00
4415;BME280;2220;42.670;23.398;2022-09-19T01:04:34;94597.19;;;7.55;100.00
4415;BME280;2220;42.670;23.398;2022-09-19T01:13:22;94557.97;;;7.13;100.00
4415;BME280;2220;42.670;23.398;2022-09-19T01:16:16;94539.09;;;6.96;100.00
4415;BME280;2220;42.670;23.398;2022-09-19T01:18:56;94516.06;;;6.78;100.00
4415;BME280;2220;42.670;23.398;2022-09-19T01:21:35;94487.56;;;6.94;100.00
4415;BME280;2220;42.670;23.398;2022-09-19T01:29:45;94475.31;;;7.07;100.00
4415;BME280;2220;42.670;23.398;2022-09-19T01:32:16;94481.88;;;7.14;100.00
4415;BME280;2220;42.670;23.398;2022-09-19T01:34:49;94483.81;;;7.24;100.00
4415;BME280;2220;42.670;23.398;2022-09-19T01:37:25;94502.59;;;7.14;100.00
4415;BME280;2220;42.670;23.398;2022-09-19T01:39:57;94498.81;;;7.05;100.00
4415;BME280;2220;42.670;23.398;2022-09-19T01:42:23;94493.66;;;7.05;100.00
4415;BME280;2220;42.670;23.398;2022-09-19T01:44:49;94507.06;;;7.02;100.00
4415;BME280;2220;42.670;23.398;2022-09-19T01:52:39;94523.94;;;7.05;100.00
4415;BME280;2220;42.670;23.398;2022-09-19T01:55:41;94534.13;;;7.11;100.00
4415;BME280;2220;42.670;23.398;2022-09-19T02:06:26;94533.97;;;7.18;100.00
4415;BME280;2220;42.670;23.398;2022-09-19T02:11:52;94532.88;;;7.14;100.00
4415;BME280;2220;42.670;23.398;2022-09-19T02:14:21;94538.00;;;7.09;100.00
4415;BME280;2220;42.670;23.398;2022-09-19T02:16:50;94536.47;;;7.13;100.00
4415;BME280;2220;42.670;23.398;2022-09-19T02:19:42;94532.94;;;7.19;100.00
4415;BME280;2220;42.670;23.398;2022-09-19T02:22:14;94543.53;;;7.17;100.00
4415;BME280;2220;42.670;23.398;2022-09-19T02:24:46;94542.88;;;7.27;100.00
4415;BME280;2220;42.670;23.398;2022-09-19T02:27:22;94533.84;;;7.29;100.00
4415;BME280;2220;42.670;23.398;2022-09-19T02:29:53;94536.16;;;7.26;100.00
4415;BME280;2220;42.670;23.398;2022-09-19T02:32:20;94514.50;;;7.15;100.00
4415;BME280;2220;42.670;23.398;2022-09-19T02:34:47;94499.94;;;7.09;100.00
4415;BME280;2220;42.670;23.398;2022-09-19T02:37:32;94479.50;;;7.13;100.00
4415;BME280;2220;42.670;23.398;2022-09-19T02:45:25;94464.88;;;7.01;100.00
4415;BME280;2220;42.670;23.398;2022-09-19T02:48:11;94458.59;;;6.97;100.00
4415;BME280;2220;42.670;23.398;2022-09-19T02:50:51;94447.06;;;6.88;100.00
4415;BME280;2220;42.670;23.398;2022-09-19T02:53:25;94434.53;;;6.80;100.00
4415;BME280;2220;42.670;23.398;2022-09-19T02:55:57;94433.97;;;6.56;100.00
4415;BME280;2220;42.670;23.398;2022-09-19T02:58:25;94433.34;;;6.66;100.00
4415;BME280;2220;42.670;23.398;2022-09-19T03:00:56;94420.06;;;6.62;100.00
4415;BME280;2220;42.670;23.398;2022-09-19T03:03:28;94427.00;;;6.40;100.00
4415;BME280;2220;42.670;23.398;2022-09-19T03:06:16;94414.53;;;6.54;100.00
4415;BME280;2220;42.670;23.398;2022-09-19T03:08:43;94420.56;;;6.59;100.00
4415;BME280;2220;42.670;23.398;2022-09-19T03:11:12;94412.47;;;6.56;100.00
4415;BME280;2220;42.670;23.398;2022-09-19T03:13:40;94412.94;;;6.69;100.00
4415;BME280;2220;42.670;23.398;2022-09-19T03:16:13;94411.78;;;6.60;100.00
4415;BME280;2220;42.670;23.398;2022-09-19T03:18:42;94415.16;;;6.61;100.00
4415;BME280;2220;42.670;23.398;2022-09-19T03:21:10;94428.63;;;6.63;100.00
4415;BME280;2220;42.670;23.398;2022-09-19T03:23:54;94430.66;;;6.61;100.00
4415;BME280;2220;42.670;23.398;2022-09-19T03:26:29;94431.44;;;6.61;100.00
4415;BME280;2220;42.670;23.398;2022-09-19T03:28:57;94426.56;;;6.65;100.00
4415;BME280;2220;42.670;23.398;2022-09-19T03:31:23;94415.94;;;6.61;100.00
4415;BME280;2220;42.670;23.398;2022-09-19T03:33:48;94414.66;;;6.64;100.00
4415;BME280;2220;42.670;23.398;2022-09-19T03:36:14;94409.88;;;6.94;100.00
4415;BME280;2220;42.670;23.398;2022-09-19T03:38:41;94429.88;;;6.99;100.00
4415;BME280;2220;42.670;23.398;2022-09-19T03:41:10;94446.16;;;6.78;100.00
4415;BME280;2220;42.670;23.398;2022-09-19T03:43:36;94447.19;;;6.77;100.00
4415;BME280;2220;42.670;23.398;2022-09-19T03:46:01;94464.41;;;6.66;100.00
4415;BME280;2220;42.670;23.398;2022-09-19T03:48:27;94468.56;;;6.50;100.00
4415;BME280;2220;42.670;23.398;2022-09-19T03:50:53;94470.97;;;6.57;100.00
4415;BME280;2220;42.670;23.398;2022-09-19T03:53:19;94470.50;;;6.60;100.00
4415;BME280;2220;42.670;23.398;2022-09-19T03:55:46;94470.44;;;6.55;100.00
4415;BME280;2220;42.670;23.398;2022-09-19T03:58:11;94465.78;;;6.73;100.00
4415;BME280;2220;42.670;23.398;2022-09-19T04:00:38;94478.31;;;6.65;100.00
4415;BME280;2220;42.670;23.398;2022-09-19T04:03:03;94485.50;;;6.58;100.00
4415;BME280;2220;42.670;23.398;2022-09-19T04:05:29;94484.47;;;6.59;100.00
4415;BME280;2220;42.670;23.398;2022-09-19T04:07:55;94491.50;;;6.63;100.00
4415;BME280;2220;42.670;23.398;2022-09-19T04:10:21;94509.78;;;6.23;100.00
4415;BME280;2220;42.670;23.398;2022-09-19T04:12:46;94491.13;;;6.21;100.00
4415;BME280;2220;42.670;23.398;2022-09-19T04:15:14;94495.19;;;6.17;100.00
4415;BME280;2220;42.670;23.398;2022-09-19T04:17:39;94483.38;;;6.38;100.00
4415;BME280;2220;42.670;23.398;2022-09-19T04:20:05;94491.84;;;6.50;100.00
4415;BME280;2220;42.670;23.398;2022-09-19T04:22:31;94484.63;;;6.69;100.00
4415;BME280;2220;42.670;23.398;2022-09-19T04:24:56;94497.84;;;6.72;100.00
4415;BME280;2220;42.670;23.398;2022-09-19T04:27:22;94517.88;;;6.77;100.00
4415;BME280;2220;42.670;23.398;2022-09-19T04:29:48;94540.00;;;6.68;100.00
4415;BME280;2220;42.670;23.398;2022-09-19T04:32:13;94557.78;;;6.64;100.00
4415;BME280;2220;42.670;23.398;2022-09-19T04:34:41;94567.97;;;6.71;100.00
4415;BME280;2220;42.670;23.398;2022-09-19T04:37:08;94564.59;;;6.87;100.00
4415;BME280;2220;42.670;23.398;2022-09-19T04:39:34;94571.13;;;6.90;100.00
4415;BME280;2220;42.670;23.398;2022-09-19T04:42:00;94590.47;;;6.54;100.00
4415;BME280;2220;42.670;23.398;2022-09-19T04:44:27;94596.78;;;6.58;100.00
4415;BME280;2220;42.670;23.398;2022-09-19T04:46:55;94591.66;;;6.63;100.00
4415;BME280;2220;42.670;23.398;2022-09-19T04:49:21;94596.19;;;6.56;100.00
4415;BME280;2220;42.670;23.398;2022-09-19T04:51:46;94593.06;;;6.25;100.00
4415;BME280;2220;42.670;23.398;2022-09-19T04:54:12;94586.72;;;6.16;100.00
4415;BME280;2220;42.670;23.398;2022-09-19T04:56:39;94578.19;;;6.32;100.00
4415;BME280;2220;42.670;23.398;2022-09-19T04:59:09;94570.75;;;6.19;100.00
4415;BME280;2220;42.670;23.398;2022-09-19T05:01:36;94554.91;;;6.32;100.00
4415;BME280;2220;42.670;23.398;2022-09-19T05:04:02;94559.88;;;6.34;100.00
4415;BME280;2220;42.670;23.398;2022-09-19T05:06:30;94562.88;;;6.59;100.00
4415;BME280;2220;42.670;23.398;2022-09-19T05:08:55;94570.91;;;6.58;100.00
4415;BME280;2220;42.670;23.398;2022-09-19T05:11:23;94581.41;;;5.94;100.00
4415;BME280;2220;42.670;23.398;2022-09-19T05:13:49;94597.66;;;6.06;100.00
4415;BME280;2220;42.670;23.398;2022-09-19T05:16:15;94599.78;;;6.38;100.00
4415;BME280;2220;42.670;23.398;2022-09-19T05:18:41;94608.00;;;6.35;100.00
4415;BME280;2220;42.670;23.398;2022-09-19T05:21:10;94615.50;;;6.20;100.00
4415;BME280;2220;42.670;23.398;2022-09-19T05:23:36;94628.22;;;6.38;100.00
4415;BME280;2220;42.670;23.398;2022-09-19T05:26:07;94629.59;;;6.57;100.00
4415;BME280;2220;42.670;23.398;2022-09-19T05:28:33;94662.25;;;6.58;100.00
4415;BME280;2220;42.670;23.398;2022-09-19T05:30:59;94657.31;;;6.73;100.00
4415;BME280;2220;42.670;23.398;2022-09-19T05:33:29;94670.78;;;6.59;100.00
4415;BME280;2220;42.670;23.398;2022-09-19T05:35:57;94673.22;;;6.37;100.00
4415;BME280;2220;42.670;23.398;2022-09-19T05:38:26;94663.06;;;6.47;100.00
4415;BME280;2220;42.670;23.398;2022-09-19T05:40:53;94663.22;;;6.57;100.00
4415;BME280;2220;42.670;23.398;2022-09-19T05:43:18;94651.81;;;6.70;100.00
4415;BME280;2220;42.670;23.398;2022-09-19T05:45:44;94647.81;;;6.62;100.00
4415;BME280;2220;42.670;23.398;2022-09-19T05:48:10;94649.53;;;6.73;100.00
4415;BME280;2220;42.670;23.398;2022-09-19T05:50:36;94643.31;;;7.03;100.00
4415;BME280;2220;42.670;23.398;2022-09-19T05:53:02;94646.13;;;7.35;100.00
4415;BME280;2220;42.670;23.398;2022-09-19T05:55:46;94668.84;;;7.67;100.00
4415;BME280;2220;42.670;23.398;2022-09-19T05:58:12;94677.94;;;7.86;100.00
4415;BME280;2220;42.670;23.398;2022-09-19T06:00:38;94694.94;;;7.99;100.00
4415;BME280;2220;42.670;23.398;2022-09-19T06:03:05;94702.97;;;7.97;100.00
4415;BME280;2220;42.670;23.398;2022-09-19T06:05:38;94713.84;;;8.16;100.00
4415;BME280;2220;42.670;23.398;2022-09-19T06:08:03;94729.94;;;8.35;100.00
4415;BME280;2220;42.670;23.398;2022-09-19T06:10:33;94744.72;;;8.56;100.00
4415;BME280;2220;42.670;23.398;2022-09-19T06:13:00;94761.06;;;8.79;100.00
4415;BME280;2220;42.670;23.398;2022-09-19T06:15:25;94787.03;;;8.79;100.00
4415;BME280;2220;42.670;23.398;2022-09-19T06:17:55;94809.72;;;8.83;100.00
4415;BME280;2220;42.670;23.398;2022-09-19T06:20:20;94832.88;;;8.90;100.00
4415;BME280;2220;42.670;23.398;2022-09-19T06:22:46;94845.84;;;8.90;100.00
4415;BME280;2220;42.670;23.398;2022-09-19T06:25:11;94853.50;;;8.75;100.00
4415;BME280;2220;42.670;23.398;2022-09-19T06:27:38;94881.88;;;9.03;100.00
4415;BME280;2220;42.670;23.398;2022-09-19T06:30:05;94917.47;;;9.03;100.00
4415;BME280;2220;42.670;23.398;2022-09-19T06:32:31;94936.69;;;9.02;100.00
4415;BME280;2220;42.670;23.398;2022-09-19T06:34:57;94952.56;;;9.05;100.00
4415;BME280;2220;42.670;23.398;2022-09-19T06:37:22;94976.41;;;9.19;100.00
4415;BME280;2220;42.670;23.398;2022-09-19T06:39:48;95008.28;;;9.31;100.00
4415;BME280;2220;42.670;23.398;2022-09-19T06:42:19;95049.44;;;9.61;100.00
4415;BME280;2220;42.670;23.398;2022-09-19T06:44:45;95091.63;;;9.85;100.00
4415;BME280;2220;42.670;23.398;2022-09-19T06:47:10;95130.31;;;9.60;100.00
4415;BME280;2220;42.670;23.398;2022-09-19T06:49:39;95138.66;;;9.78;100.00
4415;BME280;2220;42.670;23.398;2022-09-19T06:52:04;95172.31;;;9.68;100.00
4415;BME280;2220;42.670;23.398;2022-09-19T06:54:30;95176.53;;;9.91;100.00
4415;BME280;2220;42.670;23.398;2022-09-19T06:56:56;95196.66;;;9.62;100.00
4415;BME280;2220;42.670;23.398;2022-09-19T06:59:21;95205.19;;;9.74;100.00
4415;BME280;2220;42.670;23.398;2022-09-19T07:01:47;95202.47;;;9.86;100.00
4415;BME280;2220;42.670;23.398;2022-09-19T07:04:13;95214.72;;;10.24;100.00
4415;BME280;2220;42.670;23.398;2022-09-19T07:06:38;95225.50;;;10.55;100.00
4415;BME280;2220;42.670;23.398;2022-09-19T07:09:04;95246.47;;;10.65;100.00
4415;BME280;2220;42.670;23.398;2022-09-19T07:11:33;95275.53;;;10.79;100.00
4415;BME280;2220;42.670;23.398;2022-09-19T07:14:01;95299.88;;;11.11;100.00
4415;BME280;2220;42.670;23.398;2022-09-19T07:16:26;95330.63;;;11.31;100.00
4415;BME280;2220;42.670;23.398;2022-09-19T07:18:52;95348.13;;;11.63;100.00
4415;BME280;2220;42.670;23.398;2022-09-19T07:21:18;95374.91;;;11.53;100.00
4415;BME280;2220;42.670;23.398;2022-09-19T07:23:43;95373.53;;;11.72;100.00
4415;BME280;2220;42.670;23.398;2022-09-19T07:26:10;95392.53;;;11.68;100.00
4415;BME280;2220;42.670;23.398;2022-09-19T07:28:35;95394.88;;;11.69;100.00
4415;BME280;2220;42.670;23.398;2022-09-19T07:31:01;95404.19;;;11.82;100.00
4415;BME280;2220;42.670;23.398;2022-09-19T07:33:26;95400.97;;;12.02;100.00
4415;BME280;2220;42.670;23.398;2022-09-19T07:35:55;95400.47;;;12.05;100.00
4415;BME280;2220;42.670;23.398;2022-09-19T07:38:22;95408.97;;;12.22;100.00
